Time;durP1;ratioP1;P1;durP2;ratioP2;P2;SDS_P1;SDS_P2;PMS_P1;PMS_P2;Temp;Humidity;BMP_temperature;BMP_pressure;BME280_temperature;BME280_humidity;BME280_pressure;Samples;Min_cycle;Max_cycle;Signal;HPM_P1;HPM_P2
2023/04/05 00:00:14;;;;;;;6.40;4.17;;;;;;;6.35;40.93;98529.97;8377883;28;20390;-69
2023/04/05 00:04:19;;;;;;;5.43;3.83;;;;;;;6.14;40.94;98533.78;8377621;28;20228;-69
2023/04/05 00:08:25;;;;;;;4.93;3.77;;;;;;;6.18;40.98;98529.44;8377490;28;20294;-69
2023/04/05 00:12:28;;;;;;;6.17;3.80;;;;;;;6.14;40.98;98525.22;8377578;28;20529;-68
2023/04/05 00:16:33;;;;;;;3.90;3.20;;;;;;;6.13;40.96;98523.50;8377705;28;20225;-69
2023/04/05 00:20:36;;;;;;;3.90;3.30;;;;;;;6.13;40.76;98514.09;8378262;28;20560;-69
2023/04/05 00:24:40;;;;;;;3.93;2.97;;;;;;;5.98;40.94;98514.38;8383479;28;20540;-69
2023/04/05 00:28:43;;;;;;;4.13;3.30;;;;;;;5.77;41.24;98507.81;8382826;28;20224;-67
2023/04/05 00:32:49;;;;;;;5.13;3.10;;;;;;;5.73;41.67;98504.47;8383242;28;20269;-68
2023/04/05 00:36:52;;;;;;;6.97;3.80;;;;;;;5.83;41.81;98497.44;8382977;28;20232;-69
2023/04/05 00:40:54;;;;;;;5.40;3.67;;;;;;;5.73;42.04;98509.59;8382957;28;20282;-69
2023/04/05 00:44:57;;;;;;;5.37;3.50;;;;;;;5.68;42.09;98499.38;8382584;28;20229;-69
2023/04/05 00:49:01;;;;;;;4.20;3.37;;;;;;;5.60;42.47;98496.09;8382578;28;20229;-69
2023/04/05 00:53:04;;;;;;;5.73;3.50;;;;;;;5.65;42.53;98496.88;8382500;28;20236;-69
2023/04/05 00:57:08;;;;;;;4.50;3.40;;;;;;;5.71;42.28;98489.91;8382404;28;20225;-69
2023/04/05 01:01:13;;;;;;;4.80;3.27;;;;;;;5.53;42.08;98485.94;8382405;28;20524;-69
2023/04/05 01:05:25;;;;;;;6.07;2.90;;;;;;;5.57;41.98;98482.44;8382209;28;20570;-69
2023/04/05 01:09:36;;;;;;;3.90;3.50;;;;;;;5.44;42.41;98477.47;8382090;28;20224;-69
2023/04/05 01:13:39;;;;;;;5.83;3.50;;;;;;;5.71;41.50;98469.34;8381719;28;20244;-69
2023/04/05 01:17:41;;;;;;;4.03;3.20;;;;;;;5.61;41.86;98469.50;8381253;28;20618;-68
2023/04/05 01:22:12;;;;;;;5.53;3.47;;;;;;;5.47;42.61;98461.19;8381868;28;20450;-69
2023/04/05 01:26:32;;;;;;;4.97;3.53;;;;;;;5.50;42.41;98453.41;8381262;28;20226;-69
2023/04/05 01:30:38;;;;;;;6.20;3.40;;;;;;;5.24;42.65;98438.44;8381275;28;20417;-68
2023/04/05 01:34:48;;;;;;;5.37;3.70;;;;;;;5.17;42.92;98445.38;8380204;28;20346;-69
2023/04/05 01:38:51;;;;;;;4.70;3.50;;;;;;;5.37;43.11;98442.50;8380760;28;20513;-68
2023/04/05 01:42:54;;;;;;;4.97;3.63;;;;;;;5.28;43.00;98429.81;8380841;28;20547;-69
2023/04/05 01:46:58;;;;;;;4.13;3.50;;;;;;;5.24;43.13;98443.56;8380914;28;20229;-69
2023/04/05 01:51:01;;;;;;;5.20;3.70;;;;;;;5.30;42.72;98438.34;8380443;28;20248;-69
2023/04/05 01:55:04;;;;;;;4.50;3.40;;;;;;;5.20;42.88;98437.63;8380392;28;20228;-69
2023/04/05 01:59:07;;;;;;;3.90;3.50;;;;;;;5.06;43.10;98440.41;8380094;28;20537;-69
2023/04/05 02:03:12;;;;;;;4.00;3.20;;;;;;;5.06;43.25;98439.53;8380294;28;20235;-69
2023/04/05 02:07:14;;;;;;;5.10;3.00;;;;;;;5.18;43.02;98446.22;8379946;28;20224;-69
2023/04/05 02:11:17;;;;;;;4.40;3.47;;;;;;;5.20;42.75;98441.94;8379976;28;20240;-69
2023/04/05 02:15:20;;;;;;;4.10;2.83;;;;;;;5.20;43.25;98431.66;8379685;28;20227;-69
2023/04/05 02:19:24;;;;;;;3.87;2.80;;;;;;;5.02;43.62;98437.88;8379732;28;20224;-69
2023/04/05 02:23:29;;;;;;;5.83;3.23;;;;;;;4.93;43.29;98431.19;8379641;28;20311;-68
2023/04/05 02:27:32;;;;;;;3.63;2.57;;;;;;;4.88;43.46;98423.53;8379217;28;20224;-69
2023/04/05 02:31:35;;;;;;;5.07;2.83;;;;;;;4.98;43.26;98421.69;8379495;28;20229;-69
2023/04/05 02:35:39;;;;;;;4.27;2.97;;;;;;;5.04;43.12;98433.59;8379448;28;20622;-70
2023/04/05 02:39:42;;;;;;;4.60;2.90;;;;;;;4.76;43.35;98410.03;8378862;28;20229;-69
2023/04/05 02:43:45;;;;;;;3.83;2.87;;;;;;;4.91;43.32;98430.34;8378415;28;20229;-68
2023/04/05 02:47:47;;;;;;;4.70;3.07;;;;;;;4.80;43.07;98424.53;8378888;28;20520;-68
2023/04/05 02:51:52;;;;;;;3.77;2.47;;;;;;;4.90;43.22;98420.97;8379016;28;20554;-68
2023/04/05 02:55:56;;;;;;;3.17;2.43;;;;;;;4.77;43.40;98422.00;8378548;28;20240;-69
2023/04/05 02:59:58;;;;;;;3.77;2.33;;;;;;;4.77;43.62;98422.84;8378597;28;20255;-69
2023/04/05 03:04:01;;;;;;;5.33;3.10;;;;;;;4.88;43.22;98420.13;8378674;28;20236;-68
2023/04/05 03:08:06;;;;;;;4.53;3.17;;;;;;;4.84;43.42;98416.75;8378621;28;20248;-68
2023/04/05 03:12:09;;;;;;;5.30;2.93;;;;;;;4.69;43.63;98411.84;8378584;28;20221;-68
2023/04/05 03:16:11;;;;;;;4.50;3.07;;;;;;;4.73;43.72;98405.78;8378147;28;20228;-68
2023/04/05 03:20:14;;;;;;;6.47;3.30;;;;;;;4.08;43.89;98339.94;8378443;28;20221;-68
2023/04/05 03:24:18;;;;;;;3.43;3.00;;;;;;;4.57;44.09;98407.72;8378506;28;20406;-68
2023/04/05 03:28:22;;;;;;;4.97;3.17;;;;;;;4.50;44.08;98413.78;8378427;28;20558;-68
2023/04/05 03:32:25;;;;;;;4.40;3.00;;;;;;;4.51;44.33;98410.34;8378354;28;20251;-68
2023/04/05 03:36:29;;;;;;;5.57;3.37;;;;;;;4.26;44.46;98412.38;8378205;28;20535;-69
2023/04/05 03:40:33;;;;;;;3.77;3.13;;;;;;;4.53;44.00;98411.16;8378199;28;20217;-68
2023/04/05 03:44:36;;;;;;;3.33;2.90;;;;;;;4.50;44.24;98414.63;8378200;28;20516;-68
2023/04/05 03:48:39;;;;;;;3.63;3.03;;;;;;;4.39;44.51;98408.78;8377945;28;20224;-69
2023/04/05 03:52:42;;;;;;;5.47;3.17;;;;;;;4.39;44.25;98408.78;8377172;28;20233;-68
2023/04/05 03:56:46;;;;;;;4.40;2.60;;;;;;;4.42;44.32;98413.91;8380043;28;20255;-68
2023/04/05 04:00:49;;;;;;;4.43;3.40;;;;;;;4.38;44.30;98412.25;8384059;28;20231;-68
2023/04/05 04:04:52;;;;;;;3.33;2.90;;;;;;;4.51;44.09;98405.22;8383963;28;20251;-68
2023/04/05 04:08:55;;;;;;;3.77;2.97;;;;;;;4.44;44.04;98401.06;8383868;28;20228;-68
2023/04/05 04:13:00;;;;;;;5.83;3.37;;;;;;;4.37;44.32;98410.53;8383525;28;20255;-69
2023/04/05 04:17:02;;;;;;;8.03;4.70;;;;;;;4.36;44.39;98402.84;8383581;28;20216;-68
2023/04/05 04:21:05;;;;;;;8.17;6.60;;;;;;;4.25;44.23;98408.97;8383345;28;20245;-69
2023/04/05 04:25:11;;;;;;;5.57;4.97;;;;;;;4.35;44.27;98403.72;8383006;28;20300;-69
2023/04/05 04:29:16;;;;;;;5.33;4.13;;;;;;;4.34;44.46;98409.72;8382817;28;20464;-69
2023/04/05 04:33:19;;;;;;;5.30;4.17;;;;;;;4.33;44.30;98418.28;8383086;28;20229;-69
2023/04/05 04:37:29;;;;;;;3.90;3.60;;;;;;;4.31;44.10;98408.88;8382827;28;20233;-69
2023/04/05 04:41:32;;;;;;;5.43;3.83;;;;;;;4.26;44.66;98402.13;8382552;28;20221;-69
2023/04/05 04:45:37;;;;;;;4.23;3.73;;;;;;;4.02;45.15;98393.84;8382343;28;20453;-69
2023/04/05 04:49:40;;;;;;;4.93;3.60;;;;;;;4.28;44.63;98405.50;8382623;28;20225;-70
2023/04/05 04:53:43;;;;;;;4.50;3.43;;;;;;;4.23;44.52;98415.00;8382118;28;20240;-70
2023/04/05 04:57:45;;;;;;;13.50;10.00;;;;;;;4.12;44.73;98407.41;8382244;28;20275;-69
2023/04/05 05:01:49;;;;;;;11.17;6.00;;;;;;;4.02;44.92;98422.03;8381990;28;20237;-69
2023/04/05 05:05:53;;;;;;;6.73;4.07;;;;;;;4.16;44.81;98421.03;8382220;28;20240;-69
2023/04/05 05:09:56;;;;;;;4.80;3.30;;;;;;;4.14;44.67;98430.47;8382043;28;20231;-70
2023/04/05 05:13:59;;;;;;;4.23;3.30;;;;;;;4.10;45.06;98430.50;8381890;28;20382;-69
2023/04/05 05:18:03;;;;;;;4.47;3.10;;;;;;;4.18;44.95;98422.72;8381611;28;20236;-70
2023/04/05 05:22:06;;;;;;;3.53;3.10;;;;;;;4.28;44.78;98413.19;8381535;28;20551;-69
2023/04/05 05:26:09;;;;;;;8.20;2.80;;;;;;;4.36;44.89;98423.38;8381197;28;20229;-69
2023/04/05 05:30:16;;;;;;;3.67;2.30;;;;;;;4.60;43.89;98432.47;8381165;28;20244;-69
2023/04/05 05:34:20;;;;;;;3.30;2.60;;;;;;;5.08;42.77;98428.41;8381474;28;20327;-70
2023/04/05 05:38:24;;;;;;;3.83;2.50;;;;;;;5.22;42.45;98432.47;8380962;28;20225;-69
2023/04/05 05:42:27;;;;;;;3.00;2.40;;;;;;;4.97;42.55;98398.59;8380841;28;20239;-70
2023/04/05 05:46:29;;;;;;;4.07;2.70;;;;;;;5.01;43.13;98431.06;8380940;28;20229;-70
2023/04/05 05:50:35;;;;;;;5.07;2.60;;;;;;;5.31;42.76;98439.16;8380547;28;20235;-69
2023/04/05 05:54:38;;;;;;;3.73;2.33;;;;;;;5.26;42.94;98447.81;8380797;28;20232;-69
2023/04/05 05:58:43;;;;;;;4.57;2.80;;;;;;;5.24;42.74;98446.97;8380134;28;20536;-70
2023/04/05 06:02:46;;;;;;;5.50;2.90;;;;;;;5.38;42.80;98448.47;8379820;28;20236;-69
2023/04/05 06:06:50;;;;;;;6.20;3.60;;;;;;;5.76;41.46;98436.72;8379721;28;20331;-69
2023/04/05 06:10:53;;;;;;;3.23;2.80;;;;;;;6.58;40.38;98436.06;8379849;28;20236;-70
2023/04/05 06:14:56;;;;;;;4.13;3.17;;;;;;;7.28;39.52;98446.53;8379725;28;20229;-70
2023/04/05 06:18:59;;;;;;;4.73;3.17;;;;;;;7.39;38.42;98434.25;8379281;28;20233;-70
2023/04/05 06:23:03;;;;;;;4.13;3.00;;;;;;;7.07;39.39;98455.59;8379845;28;20237;-70
2023/04/05 06:27:05;;;;;;;4.20;2.90;;;;;;;6.99;39.30;98450.63;8379492;28;20290;-70
2023/04/05 06:31:08;;;;;;;3.87;2.73;;;;;;;7.19;38.38;98442.44;8379586;28;20225;-70
2023/04/05 06:35:13;;;;;;;4.43;3.40;;;;;;;6.54;39.67;98439.56;8379591;28;20235;-70
2023/04/05 06:39:17;;;;;;;5.30;3.00;;;;;;;6.97;39.64;98442.09;8379502;28;20532;-70
2023/04/05 06:43:23;;;;;;;5.23;3.23;;;;;;;7.10;39.19;98440.09;8379233;28;20252;-70
2023/04/05 06:47:26;;;;;;;5.37;2.90;;;;;;;7.08;39.65;98446.13;8378850;28;20229;-70
2023/04/05 06:51:28;;;;;;;4.83;3.00;;;;;;;7.28;39.15;98441.38;8379211;28;20225;-70
2023/04/05 06:55:33;;;;;;;4.17;3.30;;;;;;;7.74;37.48;98440.25;8379098;28;20248;-70
2023/04/05 06:59:37;;;;;;;3.80;3.10;;;;;;;8.59;36.96;98445.75;8378986;28;20639;-70
2023/04/05 07:03:40;;;;;;;5.07;3.40;;;;;;;8.51;36.85;98445.13;8378783;28;20547;-70
2023/04/05 07:07:44;;;;;;;3.70;3.10;;;;;;;8.40;36.13;98435.91;8378465;28;20227;-69
2023/04/05 07:11:48;;;;;;;4.10;2.90;;;;;;;8.69;36.65;98436.84;8378734;28;20231;-69
2023/04/05 07:15:51;;;;;;;6.10;3.13;;;;;;;8.66;36.99;98446.41;8378572;28;20387;-70
2023/04/05 07:19:54;;;;;;;5.30;2.93;;;;;;;8.56;36.29;98438.94;8378673;28;20228;-71
2023/04/05 07:23:59;;;;;;;8.07;3.40;;;;;;;8.85;35.52;98437.22;8378316;28;20405;-70
2023/04/05 07:28:03;;;;;;;5.67;3.07;;;;;;;9.38;34.77;98433.91;8378577;28;20385;-70
2023/04/05 07:32:08;;;;;;;5.80;3.63;;;;;;;10.05;33.88;98428.22;8381675;28;20528;-71
2023/04/05 07:36:10;;;;;;;6.43;3.60;;;;;;;9.86;55.77;98443.53;8385416;28;20228;-70
2023/04/05 07:40:13;;;;;;;5.40;3.03;;;;;;;9.68;33.12;98434.63;8385016;28;20224;-70
2023/04/05 07:44:18;;;;;;;4.17;3.23;;;;;;;10.24;32.54;98422.38;8384643;28;20229;-70
2023/04/05 07:48:20;;;;;;;5.03;3.20;;;;;;;8.72;32.06;98435.91;8385028;28;20528;-70
2023/04/05 07:52:23;;;;;;;9.10;3.70;;;;;;;9.93;30.60;98436.41;8385179;28;20536;-70
2023/04/05 07:56:26;;;;;;;5.67;2.93;;;;;;;11.09;30.63;98431.31;8384741;28;20251;-70
2023/04/05 08:00:30;;;;;;;6.47;3.47;;;;;;;9.76;30.80;98411.09;8384567;28;20228;-70
2023/04/05 08:04:33;;;;;;;6.60;3.23;;;;;;;11.13;29.51;98432.03;8384446;28;20452;-70
2023/04/05 08:08:36;;;;;;;5.80;3.00;;;;;;;10.06;29.88;98435.06;8384402;28;20549;-70
2023/04/05 08:12:39;;;;;;;6.07;2.73;;;;;;;11.42;27.97;98420.50;8384328;28;20482;-70
2023/04/05 08:16:44;;;;;;;5.17;3.30;;;;;;;11.10;28.03;98430.44;8383642;28;20410;-69
2023/04/05 08:20:51;;;;;;;7.97;2.90;;;;;;;12.45;34.43;98436.09;8384006;28;20231;-70
2023/04/05 08:24:54;;;;;;;4.13;3.10;;;;;;;11.77;27.99;98435.56;8382530;28;20242;-71
2023/04/05 08:28:57;;;;;;;4.13;2.80;;;;;;;11.55;27.56;98410.47;8381492;28;20235;-70
2023/04/05 08:33:03;;;;;;;3.87;2.77;;;;;;;10.41;28.25;98430.41;8381812;28;20240;-71
2023/04/05 08:37:06;;;;;;;5.27;2.80;;;;;;;11.24;27.41;98426.44;8381315;28;20243;-70
2023/04/05 08:41:14;;;;;;;3.90;2.87;;;;;;;11.79;27.39;98408.63;8380977;28;20274;-70
2023/04/05 08:45:19;;;;;;;4.27;2.80;;;;;;;12.42;25.90;98421.50;8381215;28;20229;-70
2023/04/05 08:49:25;;;;;;;4.77;2.50;;;;;;;12.43;25.40;98428.41;8381027;28;20247;-70
2023/04/05 08:53:28;;;;;;;4.97;2.40;;;;;;;12.60;26.16;98417.22;8380860;28;20240;-70
2023/04/05 08:57:31;;;;;;;3.83;2.67;;;;;;;12.29;25.77;98428.16;8380715;28;20271;-70
2023/04/05 09:01:38;;;;;;;3.43;2.70;;;;;;;12.76;23.76;98430.38;8380681;28;20255;-69
2023/04/05 09:05:45;;;;;;;4.23;2.30;;;;;;;12.53;26.32;98426.22;8380583;28;20263;-70
2023/04/05 09:09:51;;;;;;;3.63;2.50;;;;;;;14.46;23.97;98423.75;8380067;28;20221;-69
2023/04/05 09:13:54;;;;;;;3.60;2.50;;;;;;;15.09;22.78;98418.72;8380280;28;20532;-69
2023/04/05 09:17:57;;;;;;;3.50;2.90;;;;;;;14.64;22.27;98423.72;8380063;28;20504;-70
2023/04/05 09:22:03;;;;;;;3.40;2.67;;;;;;;14.50;21.99;98415.78;8380244;28;20280;-70
2023/04/05 09:26:18;;;;;;;3.17;2.77;;;;;;;15.50;20.96;98415.50;8340898;28;1152090;-70
2023/04/05 09:30:21;;;;;;;3.10;2.63;;;;;;;15.20;21.41;98411.97;8381728;28;20269;-70
2023/04/05 09:34:24;;;;;;;3.30;3.00;;;;;;;15.24;21.80;98410.84;8381425;28;20548;-70
2023/04/05 09:43:00;;;;;;;3.40;2.90;;;;;;;15.96;20.49;98410.28;8419890;27;20566;-68
2023/04/05 09:47:15;;;;;;;3.63;2.50;;;;;;;15.83;20.72;98400.53;8407608;28;20398;-68
2023/04/05 09:51:18;;;;;;;4.27;2.77;;;;;;;13.57;21.85;98398.84;8407412;28;20242;-69
2023/04/05 09:55:28;;;;;;;3.13;2.83;;;;;;;15.84;20.60;98390.97;8412593;28;20538;-68
2023/04/05 09:59:34;;;;;;;3.90;3.00;;;;;;;14.30;20.96;98389.03;8440290;28;20234;-69
2023/04/05 10:03:46;;;;;;;2.90;2.70;;;;;;;15.91;19.75;98399.25;8440462;28;20266;-69
2023/04/05 10:07:49;;;;;;;3.63;2.67;;;;;;;15.98;20.55;98393.56;8439780;28;20530;-68
2023/04/05 10:11:52;;;;;;;4.87;2.60;;;;;;;16.40;27.61;98397.13;8439850;28;20232;-69
2023/04/05 10:15:57;;;;;;;3.80;2.90;;;;;;;13.87;21.58;98397.28;8440111;28;20516;-69
2023/04/05 10:20:09;;;;;;;4.03;2.40;;;;;;;15.08;21.20;98391.78;8440051;28;20246;-69
2023/04/05 10:24:19;;;;;;;3.87;2.50;;;;;;;12.57;23.14;98387.97;8439543;28;20230;-71
2023/04/05 10:28:27;;;;;;;4.37;2.63;;;;;;;14.34;21.64;98387.94;8439322;28;20235;-69
2023/04/05 10:32:42;;;;;;;4.27;2.43;;;;;;;15.41;20.44;98393.41;8439397;28;20226;-69
2023/04/05 10:36:49;;;;;;;2.57;2.37;;;;;;;15.39;19.74;98393.50;8438828;28;20226;-69
2023/04/05 10:40:55;;;;;;;4.67;2.60;;;;;;;16.58;21.02;98389.09;8438631;28;20243;-69
2023/04/05 10:45:00;;;;;;;2.93;2.57;;;;;;;16.10;20.17;98381.53;8438945;28;20506;-69
2023/04/05 10:49:07;;;;;;;3.10;2.30;;;;;;;16.36;19.55;98386.97;8438807;28;20511;-69
2023/04/05 10:53:10;;;;;;;4.60;2.53;;;;;;;14.55;20.31;98380.75;8422721;28;20224;-69
2023/04/05 10:57:16;;;;;;;3.47;2.53;;;;;;;16.35;20.22;98385.28;8416100;28;20558;-69
2023/04/05 11:01:21;;;;;;;2.67;2.47;;;;;;;16.28;18.41;98376.13;8416140;28;20559;-69
2023/04/05 11:05:33;;;;;;;2.80;2.40;;;;;;;16.44;18.69;98379.50;8416084;28;20420;-69
2023/04/05 11:09:36;;;;;;;2.50;2.30;;;;;;;15.82;19.54;98273.53;8415690;28;20229;-69
2023/04/05 11:13:49;;;;;;;4.63;2.90;;;;;;;16.51;19.62;98367.72;8416062;28;20310;-69
2023/04/05 11:18:02;;;;;;;3.67;2.50;;;;;;;15.04;20.06;98349.38;8415287;28;20330;-69
2023/04/05 11:22:07;;;;;;;2.90;2.60;;;;;;;15.51;19.42;98362.41;8415334;28;20228;-69
2023/04/05 11:26:10;;;;;;;2.50;2.30;;;;;;;17.44;19.52;98367.94;8415060;28;20517;-69
2023/04/05 11:30:13;;;;;;;5.77;2.80;;;;;;;16.48;18.45;98354.84;8415035;28;20232;-69
2023/04/05 11:34:24;;;;;;;3.20;2.73;;;;;;;15.59;19.24;98358.44;8415069;28;20230;-69
2023/04/05 11:38:28;;;;;;;3.30;2.60;;;;;;;16.65;18.28;98348.56;8415087;28;20229;-68
2023/04/05 11:42:33;;;;;;;3.27;2.90;;;;;;;16.38;19.86;98348.50;8414587;28;20244;-69
2023/04/05 11:46:36;;;;;;;3.17;2.60;;;;;;;17.24;19.47;98345.69;8414679;28;20232;-69
2023/04/05 11:50:41;;;;;;;2.80;2.47;;;;;;;17.24;19.02;98337.81;8414425;28;20231;-69
2023/04/05 11:54:47;;;;;;;3.17;2.50;;;;;;;15.60;18.70;98331.38;8413692;28;20239;-68
2023/04/05 11:58:50;;;;;;;3.60;2.83;;;;;;;14.72;19.99;98334.72;8414365;28;20252;-69
2023/04/05 12:02:55;;;;;;;2.83;2.63;;;;;;;15.01;19.67;98325.25;8412995;28;20311;-69
2023/04/05 12:07:24;;;;;;;3.83;3.03;;;;;;;15.37;19.45;98318.84;8413848;28;20551;-69
2023/04/05 12:11:30;;;;;;;2.73;2.53;;;;;;;15.45;20.34;98322.66;8390663;28;20228;-69
2023/04/05 12:15:37;;;;;;;2.87;2.53;;;;;;;15.42;20.08;98298.53;8413811;28;20281;-69
2023/04/05 12:19:42;;;;;;;3.10;2.80;;;;;;;15.88;19.20;98313.25;8413741;28;20428;-69
2023/04/05 12:23:45;;;;;;;2.93;2.57;;;;;;;15.34;19.31;98308.56;8412944;28;20228;-69
2023/04/05 12:27:49;;;;;;;3.00;2.70;;;;;;;16.59;17.91;98315.78;8413093;28;20542;-69
2023/04/05 12:31:52;;;;;;;3.40;2.83;;;;;;;16.90;18.59;98302.56;8413226;28;20232;-69
2023/04/05 12:35:55;;;;;;;4.57;2.57;;;;;;;17.19;18.73;98306.75;8412912;28;20232;-69
2023/04/05 12:39:58;;;;;;;3.23;2.47;;;;;;;17.32;19.24;98309.34;8412612;28;20232;-69
2023/04/05 12:44:05;;;;;;;3.90;2.80;;;;;;;17.48;18.85;98306.56;8413021;28;20236;-69
2023/04/05 12:48:09;;;;;;;3.73;2.73;;;;;;;17.81;18.91;98289.50;8412826;28;20420;-69
2023/04/05 12:52:20;;;;;;;4.20;2.80;;;;;;;16.37;19.72;98235.31;8411465;28;20418;-69
2023/04/05 12:56:23;;;;;;;3.20;2.57;;;;;;;15.92;19.26;98286.88;8412792;28;20234;-68
2023/04/05 13:00:29;;;;;;;3.63;2.50;;;;;;;15.67;20.61;98270.97;8412497;28;20224;-69
2023/04/05 13:04:32;;;;;;;3.13;2.83;;;;;;;16.81;19.93;98280.41;8412430;28;20230;-69
2023/04/05 13:08:35;;;;;;;3.27;2.80;;;;;;;15.48;20.68;98268.63;8412143;28;20327;-70
2023/04/05 13:12:39;;;;;;;4.70;2.93;;;;;;;15.91;20.50;98271.28;8411995;28;20494;-70
2023/04/05 13:16:43;;;;;;;4.70;2.77;;;;;;;15.59;20.24;98261.84;8411279;28;20224;-68
2023/04/05 13:20:46;;;;;;;3.17;2.60;;;;;;;15.37;20.50;98261.44;8412009;28;20236;-69
2023/04/05 13:24:50;;;;;;;3.67;2.43;;;;;;;16.37;20.20;98263.19;8411799;28;20228;-69
2023/04/05 13:28:53;;;;;;;3.67;2.20;;;;;;;16.67;20.40;98252.53;8412109;28;20244;-70
2023/04/05 13:32:57;;;;;;;3.57;2.50;;;;;;;17.03;19.49;98243.25;8412070;28;20229;-70
2023/04/05 13:37:00;;;;;;;5.10;2.70;;;;;;;17.06;19.83;98245.69;8411610;28;20282;-69
2023/04/05 13:41:04;;;;;;;4.40;2.40;;;;;;;16.37;19.38;98169.97;8411075;28;20232;-69
2023/04/05 13:45:07;;;;;;;2.60;2.40;;;;;;;17.29;19.46;98228.44;8411602;28;20220;-70
2023/04/05 13:49:15;;;;;;;2.60;2.40;;;;;;;17.46;19.14;98224.69;8411510;28;20537;-70
2023/04/05 13:53:18;;;;;;;3.37;2.47;;;;;;;17.30;19.44;98224.88;8411393;28;20260;-70
2023/04/05 13:57:21;;;;;;;5.50;2.67;;;;;;;16.17;20.51;98223.47;8411543;28;20241;-70
2023/04/05 14:01:24;;;;;;;4.53;2.40;;;;;;;16.61;20.24;98222.41;8411655;28;20529;-70
2023/04/05 14:05:28;;;;;;;4.50;2.50;;;;;;;16.88;19.52;98225.97;8411791;28;20237;-70
2023/04/05 14:09:31;;;;;;;6.80;2.70;;;;;;;16.90;19.12;98214.47;8411704;28;20256;-69
2023/04/05 14:13:38;;;;;;;2.60;2.40;;;;;;;17.36;19.43;98219.25;8411236;28;20270;-69
2023/04/05 14:17:44;;;;;;;2.97;2.40;;;;;;;17.31;19.48;98218.72;8410739;28;20238;-67
2023/04/05 14:21:49;;;;;;;9.57;2.88;;;;;;;17.09;19.68;98208.00;8410586;28;20154;-69
2023/04/05 14:25:52;;;;;;;5.23;3.30;;;;;;;17.46;19.27;98210.72;8410537;28;20240;-69
2023/04/05 14:29:57;;;;;;;3.00;2.50;;;;;;;17.52;19.52;98212.94;8417226;28;20227;-70
2023/04/05 14:34:00;;;;;;;2.50;2.30;;;;;;;17.11;18.65;98196.50;8417348;28;20528;-70
2023/04/05 14:38:04;;;;;;;3.30;2.63;;;;;;;17.34;19.07;98196.72;8416926;28;20241;-69
2023/04/05 14:42:08;;;;;;;3.23;2.30;;;;;;;17.04;19.84;98197.00;8416441;28;20241;-69
2023/04/05 14:46:11;;;;;;;3.27;2.50;;;;;;;16.92;19.28;98188.19;8413348;28;20338;-70
2023/04/05 14:50:14;;;;;;;3.40;2.80;;;;;;;16.22;20.17;98186.59;8416828;28;20230;-70
2023/04/05 14:54:19;;;;;;;3.40;2.67;;;;;;;16.79;19.89;98186.38;8416265;28;20240;-70
2023/04/05 14:58:21;;;;;;;2.97;2.67;;;;;;;16.55;19.42;98188.00;8416314;28;20228;-70
2023/04/05 15:02:25;;;;;;;2.60;2.40;;;;;;;16.81;19.68;98181.03;8416084;28;20260;-70
2023/04/05 15:06:28;;;;;;;2.60;2.40;;;;;;;16.72;19.97;98184.28;8416252;28;20517;-70
2023/04/05 15:10:33;;;;;;;5.77;2.90;;;;;;;16.37;19.96;98177.81;8415928;28;20232;-70
2023/04/05 15:14:36;;;;;;;3.53;2.50;;;;;;;15.87;20.37;98175.78;8415745;28;20224;-70
2023/04/05 15:18:39;;;;;;;2.87;2.50;;;;;;;15.72;20.04;98169.72;8415410;28;20231;-70
2023/04/05 15:22:44;;;;;;;2.97;2.60;;;;;;;13.91;20.01;98168.88;8414941;28;20228;-69
2023/04/05 15:26:50;;;;;;;3.17;2.40;;;;;;;15.62;19.78;98166.84;8415483;28;20517;-70
2023/04/05 15:30:53;;;;;;;3.13;2.50;;;;;;;15.75;20.79;98165.16;8415170;28;20418;-70
2023/04/05 15:34:56;;;;;;;2.87;2.57;;;;;;;15.50;20.69;98165.81;8414948;28;20232;-69
2023/04/05 15:38:59;;;;;;;4.23;2.40;;;;;;;15.51;20.49;98175.31;8414951;28;20430;-70
2023/04/05 15:43:04;;;;;;;3.50;2.40;;;;;;;15.79;20.29;98164.03;8414824;28;20228;-71
2023/04/05 15:47:09;;;;;;;3.47;2.60;;;;;;;15.48;20.96;98172.91;8414565;28;20224;-70
2023/04/05 15:51:12;;;;;;;3.27;2.20;;;;;;;15.45;21.41;98167.88;8414817;28;20228;-70
2023/04/05 15:55:15;;;;;;;3.17;2.53;;;;;;;14.90;21.41;98173.78;8414446;28;20239;-70
2023/04/05 15:59:20;;;;;;;3.97;3.00;;;;;;;15.07;21.58;98164.97;8414024;28;20274;-71
2023/04/05 16:03:22;;;;;;;3.60;2.73;;;;;;;14.82;21.98;98162.03;8414330;28;20344;-71
2023/04/05 16:07:25;;;;;;;5.13;3.20;;;;;;;14.61;21.57;98166.72;8414384;28;20238;-70
2023/04/05 16:11:28;;;;;;;5.53;2.80;;;;;;;14.31;21.65;98156.25;8413965;28;20521;-71
2023/04/05 16:15:33;;;;;;;3.33;2.70;;;;;;;14.33;22.06;98163.97;8413979;28;20236;-70
2023/04/05 16:19:35;;;;;;;3.40;2.40;;;;;;;14.00;22.96;98154.53;8413651;28;20318;-70
2023/04/05 16:23:38;;;;;;;5.67;2.90;;;;;;;14.10;23.21;98160.88;8413238;28;20233;-70
2023/04/05 16:27:42;;;;;;;3.57;3.00;;;;;;;13.86;23.10;98157.91;8413259;28;20452;-68
2023/04/05 16:31:47;;;;;;;3.13;2.83;;;;;;;13.86;23.07;98147.47;8413404;28;20470;-69
2023/04/05 16:35:50;;;;;;;3.23;2.93;;;;;;;13.37;23.54;98150.94;8411568;28;20229;-69
2023/04/05 16:39:53;;;;;;;4.87;2.90;;;;;;;13.64;23.19;98161.63;8412901;28;20233;-70
2023/04/05 16:43:56;;;;;;;2.73;2.50;;;;;;;13.57;23.39;98162.88;8412401;28;20423;-71
2023/04/05 16:48:01;;;;;;;6.10;2.60;;;;;;;13.65;23.34;98165.06;8412479;28;20236;-70
2023/04/05 16:52:04;;;;;;;3.50;3.20;;;;;;;13.38;23.63;98165.63;8411571;28;20460;-71
2023/04/05 16:56:07;;;;;;;3.80;3.40;;;;;;;13.31;23.67;98164.28;8412925;28;20242;-71
2023/04/05 17:00:11;;;;;;;6.07;3.57;;;;;;;13.20;23.90;98157.00;8412584;28;20231;-69
2023/04/05 17:04:15;;;;;;;3.30;2.33;;;;;;;13.27;24.36;98163.56;8412556;28;20228;-69
2023/04/05 17:08:18;;;;;;;3.07;2.73;;;;;;;13.05;24.12;98158.63;8412132;28;20232;-70
2023/04/05 17:12:21;;;;;;;3.60;3.30;;;;;;;13.07;24.40;98167.19;8412136;28;20562;-69
2023/04/05 17:16:26;;;;;;;4.03;2.87;;;;;;;13.03;25.18;98175.22;8412029;28;20232;-70
2023/04/05 17:20:30;;;;;;;3.83;2.50;;;;;;;12.84;25.03;98173.53;8412073;28;20243;-69
2023/04/05 17:24:34;;;;;;;3.27;2.60;;;;;;;12.73;24.66;98168.03;8411975;28;20524;-70
2023/04/05 17:28:37;;;;;;;2.70;2.50;;;;;;;12.75;25.40;98170.56;8411871;28;20228;-70
2023/04/05 17:32:40;;;;;;;2.57;2.37;;;;;;;12.61;25.77;98171.25;8412099;28;20233;-69
2023/04/05 17:36:45;;;;;;;4.43;2.80;;;;;;;12.41;25.97;98178.25;8411271;28;20228;-70
2023/04/05 17:40:48;;;;;;;3.47;2.47;;;;;;;12.38;26.04;98175.00;8411581;28;20540;-73
2023/04/05 17:44:51;;;;;;;4.53;4.13;;;;;;;12.22;26.76;98178.31;8410680;28;20241;-71
2023/04/05 17:48:57;;;;;;;11.43;5.23;;;;;;;14.20;53.63;98188.13;8412201;28;20271;-71
2023/04/05 17:53:02;;;;;;;11.07;7.73;;;;;;;16.07;39.93;98191.06;8411483;28;20282;-71
2023/04/05 17:57:05;;;;;;;11.40;10.30;;;;;;;16.00;32.44;98192.38;8411511;28;20229;-71
2023/04/05 18:01:12;;;;;;;5.38;4.68;;;;;;;15.07;24.32;98185.81;8411203;28;20396;-72
2023/04/05 18:05:16;;;;;;;8.07;7.27;;;;;;;13.75;25.42;98183.66;8418040;28;20232;-71
2023/04/05 18:09:20;;;;;;;3.23;2.90;;;;;;;13.07;26.60;98179.34;8418034;28;20233;-71
2023/04/05 18:13:26;;;;;;;5.47;2.33;;;;;;;12.78;26.75;98178.22;8417282;28;20432;-71
2023/04/05 18:17:34;;;;;;;3.72;2.90;;;;;;;12.64;27.10;98184.94;8416657;28;20664;-72
2023/04/05 18:21:40;;;;;;;6.57;3.73;;;;;;;12.30;28.89;98194.38;8417794;28;20228;-70
2023/04/05 18:25:45;;;;;;;9.40;6.37;;;;;;;11.96;28.97;98200.31;8416591;28;20235;-70
2023/04/05 18:29:48;;;;;;;9.93;7.37;;;;;;;11.72;28.96;98181.47;8416883;28;20338;-70
2023/04/05 18:33:51;;;;;;;7.83;4.20;;;;;;;11.62;29.64;98200.97;8416762;28;20235;-70
2023/04/05 18:37:54;;;;;;;5.20;3.80;;;;;;;11.69;30.04;98191.97;8416520;28;20232;-71
2023/04/05 18:41:58;;;;;;;4.73;2.70;;;;;;;11.45;29.76;98201.72;8416805;28;20229;-70
2023/04/05 18:46:02;;;;;;;10.07;7.93;;;;;;;11.26;30.25;98206.84;8416378;28;20253;-70
2023/04/05 18:50:08;;;;;;;8.73;6.77;;;;;;;11.08;30.92;98203.28;8416687;28;20409;-70
2023/04/05 18:54:12;;;;;;;6.90;6.20;;;;;;;11.21;31.55;98211.38;8414955;28;20237;-71
2023/04/05 18:58:17;;;;;;;5.23;3.40;;;;;;;11.06;31.73;98212.88;8416910;28;20243;-71
2023/04/05 19:02:20;;;;;;;5.47;3.40;;;;;;;10.90;32.17;98218.72;8416762;28;20224;-70
2023/04/05 19:06:23;;;;;;;5.20;3.30;;;;;;;10.87;32.01;98216.25;8416132;28;20295;-71
2023/04/05 19:10:26;;;;;;;5.37;3.87;;;;;;;10.66;32.68;98222.31;8415948;28;20239;-71
2023/04/05 19:14:31;;;;;;;4.37;3.80;;;;;;;10.07;33.08;98153.84;8415571;28;20303;-70
2023/04/05 19:18:34;;;;;;;3.50;3.20;;;;;;;10.48;33.22;98216.97;8415063;28;20234;-71